Time;durP1;ratioP1;P1;durP2;ratioP2;P2;SDS_P1;SDS_P2;PMS_P1;PMS_P2;Temp;Humidity;BMP_temperature;BMP_pressure;BME280_temperature;BME280_humidity;BME280_pressure;Samples;Min_cycle;Max_cycle;Signal;HPM_P1;HPM_P2
2022/09/15 00:00:47;;;;;;;7.97;3.28;;;13.80;99.90;;;;;;5025695;28;20247;-71
2022/09/15 00:03:16;;;;;;;5.55;2.90;;;13.70;99.90;;;;;;5020186;28;20263;-75
2022/09/15 00:05:43;;;;;;;5.38;2.63;;;13.80;99.90;;;;;;5013391;28;20201;-74
2022/09/15 00:08:11;;;;;;;4.40;3.00;;;13.70;99.90;;;;;;5014142;28;20229;-75
2022/09/15 00:10:51;;;;;;;13.57;2.85;;;13.70;99.90;;;;;;5014991;28;20658;-73
2022/09/15 00:13:19;;;;;;;8.88;2.85;;;13.70;99.90;;;;;;4994797;28;20626;-74
2022/09/15 00:15:46;;;;;;;5.32;3.05;;;13.70;99.90;;;;;;5007481;28;20654;-72
2022/09/15 00:18:13;;;;;;;6.75;3.15;;;13.60;99.90;;;;;;5019937;28;20319;-74
2022/09/15 00:20:42;;;;;;;7.15;3.00;;;13.70;99.90;;;;;;5023737;28;20307;-74
2022/09/15 00:23:09;;;;;;;6.65;2.67;;;13.50;99.90;;;;;;5017215;28;20250;-74
2022/09/15 00:25:44;;;;;;;12.07;5.47;;;13.50;99.90;;;;;;5022642;28;20204;-74
2022/09/15 00:28:11;;;;;;;4.85;3.10;;;13.50;99.90;;;;;;5016191;28;20578;-75
2022/09/15 00:30:42;;;;;;;3.75;2.35;;;13.50;99.90;;;;;;5025812;28;20313;-74
2022/09/15 00:33:09;;;;;;;6.43;3.20;;;13.50;99.90;;;;;;5023453;28;20242;-74
2022/09/15 00:35:38;;;;;;;8.23;2.75;;;13.40;99.90;;;;;;5023996;28;20236;-71
2022/09/15 00:38:05;;;;;;;5.80;3.90;;;13.40;99.90;;;;;;5016432;28;20221;-73
2022/09/15 00:40:32;;;;;;;5.38;4.00;;;13.40;99.90;;;;;;5026403;28;20219;-73
2022/09/15 00:43:01;;;;;;;7.97;3.80;;;13.40;99.90;;;;;;5009088;28;20291;-73
2022/09/15 00:45:28;;;;;;;8.93;3.70;;;13.40;99.90;;;;;;5013904;28;20211;-74
2022/09/15 00:47:55;;;;;;;7.20;4.05;;;13.30;99.90;;;;;;5021507;28;20258;-74
2022/09/15 00:50:22;;;;;;;5.40;3.20;;;13.40;99.90;;;;;;5015675;28;20236;-75
2022/09/15 00:52:55;;;;;;;4.95;3.60;;;13.30;99.90;;;;;;5027846;28;20214;-74
2022/09/15 00:55:37;;;;;;;5.00;3.42;;;13.30;99.90;;;;;;5004134;28;20189;-74
2022/09/15 00:58:10;;;;;;;4.45;3.60;;;13.30;99.90;;;;;;5013033;28;20232;-73
2022/09/15 01:00:47;;;;;;;5.13;3.10;;;13.30;99.90;;;;;;5013250;28;20219;-74
2022/09/15 01:03:14;;;;;;;7.13;2.75;;;13.40;99.90;;;;;;4998646;28;20188;-74
2022/09/15 01:08:58;;;;;;;8.15;3.67;;;13.40;99.90;;;;;;5013353;28;20222;-73
2022/09/15 01:11:55;;;;;;;16.20;3.60;;;13.40;99.90;;;;;;5030868;28;20192;-75
2022/09/15 01:14:24;;;;;;;9.55;3.13;;;13.40;99.90;;;;;;5021498;28;20633;-70
2022/09/15 01:16:56;;;;;;;10.73;3.22;;;13.50;99.90;;;;;;5029939;28;20262;-75
2022/09/15 01:19:50;;;;;;;8.15;3.67;;;13.60;99.90;;;;;;5015289;28;20207;-75
2022/09/15 01:22:44;;;;;;;5.55;3.38;;;13.70;99.90;;;;;;5003064;28;20217;-74
2022/09/15 01:25:35;;;;;;;6.60;3.47;;;13.80;99.90;;;;;;5006062;28;20224;-74
2022/09/15 01:34:14;;;;;;;6.93;3.30;;;14.10;99.90;;;;;;5028047;28;20235;-72
2022/09/15 01:36:48;;;;;;;5.10;3.65;;;14.20;99.90;;;;;;4999421;28;20225;-75
2022/09/15 01:39:21;;;;;;;6.90;3.25;;;14.20;99.90;;;;;;5005837;28;20205;-75
2022/09/15 01:41:50;;;;;;;5.38;3.47;;;14.20;99.90;;;;;;5018233;28;20213;-73
2022/09/15 01:44:28;;;;;;;7.38;3.30;;;14.30;99.90;;;;;;4998061;28;20204;-74
2022/09/15 01:47:00;;;;;;;5.80;2.95;;;14.30;99.90;;;;;;5007882;28;20521;-73
2022/09/15 01:49:31;;;;;;;8.57;3.00;;;14.20;99.90;;;;;;5014153;28;20199;-73
2022/09/15 01:52:08;;;;;;;6.57;3.88;;;14.20;99.90;;;;;;5015871;28;20228;-73
2022/09/15 01:54:39;;;;;;;4.20;3.53;;;14.20;99.90;;;;;;5016216;28;20252;-73
2022/09/15 01:57:06;;;;;;;6.85;3.30;;;14.20;99.90;;;;;;5015936;28;20221;-73
2022/09/15 01:59:34;;;;;;;8.77;3.42;;;14.30;99.90;;;;;;5014560;28;20300;-72
2022/09/15 02:02:06;;;;;;;8.02;3.55;;;14.40;99.90;;;;;;5018574;28;20208;-74
2022/09/15 02:04:38;;;;;;;11.30;4.65;;;14.30;99.90;;;;;;5015876;28;20287;-73
2022/09/15 02:07:11;;;;;;;7.00;3.50;;;14.40;99.90;;;;;;5010946;28;20311;-72
2022/09/15 02:09:45;;;;;;;5.78;3.88;;;14.40;99.90;;;;;;5016413;28;20649;-72
2022/09/15 02:12:18;;;;;;;6.82;4.25;;;14.40;99.90;;;;;;5015827;28;20197;-73
2022/09/15 02:14:55;;;;;;;9.98;3.67;;;14.40;99.90;;;;;;4997233;28;20250;-75
2022/09/15 02:17:28;;;;;;;6.60;4.28;;;14.40;99.90;;;;;;4990553;28;20220;-74
2022/09/15 02:19:58;;;;;;;5.05;4.20;;;14.40;99.90;;;;;;5014662;28;20200;-75
2022/09/15 02:22:29;;;;;;;6.38;4.25;;;14.50;99.90;;;;;;5015085;28;20241;-74
2022/09/15 02:25:01;;;;;;;6.35;4.35;;;14.60;99.90;;;;;;5014032;28;20283;-75
2022/09/15 02:27:32;;;;;;;5.38;4.00;;;14.60;99.90;;;;;;5015198;28;20229;-75
2022/09/15 02:30:06;;;;;;;5.68;3.53;;;14.60;99.90;;;;;;5011826;28;20228;-74
2022/09/15 02:32:37;;;;;;;7.75;3.70;;;14.70;99.90;;;;;;5015462;28;20266;-72
2022/09/15 02:35:07;;;;;;;6.38;4.60;;;14.70;99.90;;;;;;5014407;28;20217;-73
2022/09/15 02:37:36;;;;;;;5.43;3.30;;;14.70;99.90;;;;;;5014718;28;20698;-73
2022/09/15 02:40:04;;;;;;;5.18;4.15;;;14.80;99.90;;;;;;5016507;28;20377;-74
2022/09/15 02:42:32;;;;;;;9.80;4.60;;;14.70;99.90;;;;;;5013139;28;20265;-75
2022/09/15 02:45:01;;;;;;;10.07;3.92;;;14.70;99.90;;;;;;5014755;28;20218;-72
2022/09/15 02:47:28;;;;;;;6.03;4.18;;;14.80;99.90;;;;;;5017808;28;20231;-73
2022/09/15 02:49:57;;;;;;;5.57;4.63;;;14.80;99.90;;;;;;5014825;28;20292;-73
2022/09/15 02:52:24;;;;;;;4.35;3.83;;;14.80;99.90;;;;;;5011743;28;20262;-74
2022/09/15 02:54:51;;;;;;;8.85;4.88;;;14.80;99.90;;;;;;5021128;28;20204;-75
2022/09/15 02:57:18;;;;;;;10.45;4.82;;;14.90;99.90;;;;;;5017140;28;20225;-73
2022/09/15 03:02:30;;;;;;;6.78;5.90;;;14.90;99.90;;;;;;5020369;28;20228;-72
2022/09/15 03:05:00;;;;;;;7.60;4.80;;;14.90;99.90;;;;;;5018784;28;20481;-73
2022/09/15 03:07:29;;;;;;;10.50;4.55;;;14.80;99.90;;;;;;5006326;28;20237;-74
2022/09/15 03:09:55;;;;;;;11.57;5.50;;;14.80;99.90;;;;;;5010621;28;20200;-74
2022/09/15 03:12:23;;;;;;;7.53;5.32;;;14.80;99.90;;;;;;5005034;28;20288;-73
2022/09/15 03:14:50;;;;;;;7.85;4.90;;;14.80;99.90;;;;;;5008291;28;20208;-73
2022/09/15 03:17:17;;;;;;;7.57;5.25;;;14.80;99.90;;;;;;5007380;28;20720;-73
2022/09/15 03:19:45;;;;;;;6.57;4.20;;;14.80;99.90;;;;;;5012499;28;20295;-72
2022/09/15 03:22:13;;;;;;;5.90;4.90;;;14.80;99.90;;;;;;5014618;28;20593;-71
2022/09/15 03:24:41;;;;;;;10.20;5.45;;;14.80;99.90;;;;;;5011307;28;20228;-75
2022/09/15 03:27:08;;;;;;;10.85;4.50;;;14.80;99.90;;;;;;5016233;28;20267;-73
2022/09/15 03:29:36;;;;;;;4.93;4.47;;;14.80;99.90;;;;;;5028243;28;20602;-73
2022/09/15 03:32:03;;;;;;;8.27;4.00;;;14.80;99.90;;;;;;5014789;28;20565;-73
2022/09/15 03:34:30;;;;;;;13.27;5.82;;;14.80;99.90;;;;;;5017947;28;20612;-73
2022/09/15 03:36:56;;;;;;;7.70;5.65;;;14.80;99.90;;;;;;5009209;28;20230;-73
2022/09/15 03:39:25;;;;;;;7.28;4.30;;;14.70;99.90;;;;;;5013197;28;20197;-72
2022/09/15 03:41:52;;;;;;;6.05;3.60;;;14.70;99.90;;;;;;5013424;28;20227;-73
2022/09/15 03:44:19;;;;;;;6.10;4.05;;;14.70;99.90;;;;;;5010363;28;20217;-72
2022/09/15 03:46:46;;;;;;;9.13;4.43;;;14.70;99.90;;;;;;5000580;28;20259;-74
2022/09/15 03:49:13;;;;;;;8.15;4.20;;;14.70;99.90;;;;;;5013063;28;20276;-73
2022/09/15 03:51:40;;;;;;;8.23;3.53;;;14.70;99.90;;;;;;5010148;28;20292;-73
2022/09/15 03:54:07;;;;;;;8.45;3.53;;;14.70;99.90;;;;;;5008882;28;20255;-74
2022/09/15 03:56:35;;;;;;;18.35;5.72;;;14.70;99.90;;;;;;5005528;28;20271;-73
2022/09/15 03:59:04;;;;;;;10.25;4.68;;;14.70;99.90;;;;;;5011592;28;20208;-74
2022/09/15 04:01:32;;;;;;;8.88;3.95;;;14.70;99.90;;;;;;5011988;28;20220;-72
2022/09/15 04:03:59;;;;;;;9.25;4.45;;;14.80;99.90;;;;;;5010282;28;20629;-75
2022/09/15 04:06:27;;;;;;;6.13;3.90;;;14.70;99.90;;;;;;5006520;28;20224;-74
2022/09/15 04:08:55;;;;;;;9.38;3.58;;;14.70;99.90;;;;;;5005046;28;20197;-73
2022/09/15 04:11:22;;;;;;;9.07;5.32;;;14.70;99.90;;;;;;5012081;28;20193;-72
2022/09/15 04:13:52;;;;;;;13.30;4.63;;;14.80;99.90;;;;;;5004119;28;20213;-71
2022/09/15 04:16:21;;;;;;;5.65;4.07;;;14.80;99.90;;;;;;5006984;28;20292;-73
2022/09/15 04:18:50;;;;;;;5.55;3.80;;;14.80;99.90;;;;;;5006162;28;20698;-73
2022/09/15 04:21:20;;;;;;;6.43;4.75;;;14.80;99.90;;;;;;5000388;28;20210;-74
2022/09/15 04:23:47;;;;;;;9.07;4.70;;;14.80;99.90;;;;;;5008101;28;20229;-74
2022/09/15 04:26:21;;;;;;;7.80;4.68;;;14.80;99.90;;;;;;5009948;28;20288;-74
2022/09/15 04:28:48;;;;;;;6.20;4.20;;;14.90;99.90;;;;;;4994549;28;20573;-72
2022/09/15 04:31:17;;;;;;;10.35;5.10;;;14.90;99.90;;;;;;5010889;28;20204;-71
2022/09/15 04:33:44;;;;;;;10.05;4.38;;;14.80;99.90;;;;;;5013602;28;20285;-73
2022/09/15 04:36:13;;;;;;;5.72;4.32;;;14.80;99.90;;;;;;5015560;28;20275;-73
2022/09/15 04:38:41;;;;;;;14.90;5.47;;;14.70;99.90;;;;;;5012669;28;20201;-73
2022/09/15 04:41:08;;;;;;;8.13;4.25;;;14.70;99.90;;;;;;5005411;28;20209;-73
2022/09/15 04:43:36;;;;;;;6.32;3.42;;;14.70;99.90;;;;;;5011529;28;20300;-75
2022/09/15 04:46:03;;;;;;;11.57;4.85;;;14.80;99.90;;;;;;5010069;28;20252;-74
2022/09/15 04:48:32;;;;;;;9.75;4.68;;;14.80;99.90;;;;;;5002490;28;20248;-73
2022/09/15 04:51:01;;;;;;;7.63;4.38;;;14.70;99.90;;;;;;5011608;28;20683;-73
2022/09/15 04:53:29;;;;;;;5.00;3.92;;;14.80;99.90;;;;;;5003968;28;20237;-72
2022/09/15 04:56:02;;;;;;;5.88;3.70;;;14.80;99.90;;;;;;5005548;28;20200;-72
2022/09/15 04:58:29;;;;;;;7.30;4.03;;;14.90;99.90;;;;;;5007484;28;20222;-73
2022/09/15 05:00:56;;;;;;;5.05;3.92;;;14.90;99.90;;;;;;5004987;28;20284;-73
2022/09/15 05:03:23;;;;;;;4.97;4.15;;;15.00;99.90;;;;;;5001509;28;20645;-74
2022/09/15 05:05:51;;;;;;;13.85;4.28;;;15.10;99.90;;;;;;5007276;28;20283;-73
2022/09/15 05:08:18;;;;;;;7.32;3.63;;;15.00;99.90;;;;;;5005845;28;20752;-73
2022/09/15 05:10:45;;;;;;;9.25;3.50;;;15.10;99.90;;;;;;5001772;28;20197;-75
2022/09/15 05:13:12;;;;;;;8.73;3.90;;;15.00;99.90;;;;;;5013982;28;20236;-73
2022/09/15 05:15:39;;;;;;;9.07;3.30;;;15.10;99.90;;;;;;5001832;28;20213;-74
2022/09/15 05:18:08;;;;;;;8.55;3.53;;;15.30;99.90;;;;;;5010789;28;20225;-74
2022/09/15 05:20:35;;;;;;;6.82;3.42;;;15.30;99.90;;;;;;5004512;28;20212;-74
2022/09/15 05:23:05;;;;;;;6.32;3.20;;;15.40;99.90;;;;;;5026449;28;20273;-74
2022/09/15 05:25:32;;;;;;;12.48;3.10;;;15.40;99.90;;;;;;5016207;28;20688;-75
2022/09/15 05:27:59;;;;;;;5.00;3.20;;;15.40;99.90;;;;;;5019561;28;20224;-74
2022/09/15 05:30:26;;;;;;;12.57;4.00;;;15.50;99.90;;;;;;5009056;28;20202;-75
2022/09/15 05:32:53;;;;;;;12.27;2.90;;;15.30;99.90;;;;;;5006639;28;20566;-75
2022/09/15 05:35:20;;;;;;;6.03;3.65;;;15.30;99.90;;;;;;5006133;28;20210;-74
2022/09/15 05:37:47;;;;;;;6.57;2.50;;;15.40;99.90;;;;;;5010668;28;20226;-75
2022/09/15 05:40:16;;;;;;;7.50;2.58;;;15.40;99.90;;;;;;5013331;28;20294;-72
2022/09/15 05:42:43;;;;;;;10.93;3.70;;;15.50;99.90;;;;;;4999081;28;20296;-75
2022/09/15 05:45:10;;;;;;;11.75;3.17;;;15.50;99.90;;;;;;5010829;28;20233;-75
2022/09/15 05:47:37;;;;;;;13.60;2.85;;;15.60;99.90;;;;;;5014129;28;20257;-73
2022/09/15 05:50:05;;;;;;;6.40;3.75;;;15.70;99.90;;;;;;5019185;28;20201;-77
2022/09/15 05:52:32;;;;;;;6.35;2.17;;;15.70;99.90;;;;;;5020473;28;20212;-74
2022/09/15 05:54:59;;;;;;;3.63;2.28;;;15.80;99.90;;;;;;5024186;28;20206;-73
2022/09/15 05:57:27;;;;;;;10.93;2.88;;;15.80;99.90;;;;;;5032460;28;20226;-72
2022/09/15 05:59:54;;;;;;;5.65;2.50;;;15.80;99.90;;;;;;5022198;28;20192;-75
2022/09/15 06:02:21;;;;;;;10.18;2.97;;;15.90;99.90;;;;;;5025500;28;20272;-73
2022/09/15 06:04:48;;;;;;;4.35;1.95;;;16.00;99.90;;;;;;5019437;28;20271;-74
2022/09/15 06:07:16;;;;;;;5.13;2.58;;;16.50;99.90;;;;;;5010054;28;20224;-75
2022/09/15 06:09:44;;;;;;;9.33;2.40;;;17.50;99.90;;;;;;5011824;28;20670;-75
2022/09/15 06:12:10;;;;;;;7.10;2.10;;;18.10;99.90;;;;;;5017590;28;20822;-75
2022/09/15 06:14:41;;;;;;;9.40;2.37;;;18.20;99.90;;;;;;5020422;28;20486;-73
2022/09/15 06:17:08;;;;;;;3.07;1.73;;;18.20;99.90;;;;;;5022394;28;20466;-72
2022/09/15 06:19:35;;;;;;;8.60;2.20;;;18.50;99.90;;;;;;5017291;28;20451;-73
2022/09/15 06:22:02;;;;;;;6.43;2.30;;;18.50;99.90;;;;;;5016232;28;20487;-73
2022/09/15 06:24:30;;;;;;;4.53;1.33;;;18.60;99.90;;;;;;5005420;28;20456;-71
2022/09/15 06:26:56;;;;;;;5.20;2.57;;;18.80;99.90;;;;;;5020873;28;20507;-75
2022/09/15 06:29:24;;;;;;;6.77;1.90;;;19.00;99.90;;;;;;5019021;28;20498;-74
2022/09/15 06:31:52;;;;;;;6.60;2.37;;;19.20;99.90;;;;;;5018321;28;21002;-70
2022/09/15 06:34:19;;;;;;;5.20;1.70;;;18.90;99.90;;;;;;5012142;28;20501;-71
2022/09/15 06:36:46;;;;;;;4.63;1.67;;;19.00;99.90;;;;;;5012544;28;20522;-74
2022/09/15 06:39:13;;;;;;;2.83;1.97;;;19.00;99.90;;;;;;5012273;28;20440;-72
2022/09/15 06:41:40;;;;;;;7.20;2.43;;;19.10;99.90;;;;;;5013515;28;20834;-76
2022/09/15 06:44:09;;;;;;;7.30;2.17;;;19.00;99.90;;;;;;5023694;28;20440;-71
2022/09/15 06:46:42;;;;;;;3.70;1.93;;;18.80;99.90;;;;;;5003747;28;20555;-73
2022/09/15 06:49:10;;;;;;;7.97;2.57;;;18.70;99.90;;;;;;5012290;28;20518;-74
2022/09/15 06:51:37;;;;;;;5.07;1.50;;;18.60;99.90;;;;;;5024929;28;20471;-76
2022/09/15 06:54:16;;;;;;;8.47;2.67;;;18.30;99.90;;;;;;5024474;28;20444;-73
2022/09/15 06:56:43;;;;;;;4.33;1.90;;;18.20;99.90;;;;;;5012950;28;20467;-73
2022/09/15 06:59:12;;;;;;;8.80;2.30;;;17.90;99.90;;;;;;5014220;28;20478;-74
2022/09/15 07:01:39;;;;;;;3.53;1.40;;;18.00;99.90;;;;;;5004434;28;20484;-75
2022/09/15 07:04:08;;;;;;;4.00;1.50;;;17.80;99.90;;;;;;5005043;28;20566;-73
2022/09/15 07:06:38;;;;;;;3.70;1.97;;;17.80;99.90;;;;;;5005576;28;20567;-74
2022/09/15 07:09:06;;;;;;;5.53;1.80;;;17.80;99.90;;;;;;4999234;28;20483;-74
2022/09/15 07:11:33;;;;;;;8.67;1.97;;;17.90;99.90;;;;;;5004345;28;20799;-74
2022/09/15 07:14:00;;;;;;;4.60;1.43;;;18.10;99.90;;;;;;5007307;28;20471;-74
2022/09/15 07:16:27;;;;;;;3.53;1.90;;;18.10;99.90;;;;;;5016169;28;20451;-74
2022/09/15 07:19:00;;;;;;;4.07;1.87;;;18.40;99.90;;;;;;5020288;28;20452;-74
2022/09/15 07:21:28;;;;;;;4.53;1.90;;;18.50;99.90;;;;;;5007255;28;20463;-73
2022/09/15 07:23:58;;;;;;;7.60;1.10;;;18.70;99.90;;;;;;5006206;28;20632;-71
2022/09/15 07:26:27;;;;;;;11.07;1.70;;;18.70;99.90;;;;;;4999697;28;20456;-73
2022/09/15 07:28:56;;;;;;;3.43;1.73;;;19.00;99.90;;;;;;5006380;28;20534;-73
2022/09/15 07:31:25;;;;;;;10.60;2.23;;;18.90;99.90;;;;;;5008819;28;20440;-73
2022/09/15 07:33:52;;;;;;;4.53;1.43;;;19.00;99.90;;;;;;5011074;28;20468;-75
2022/09/15 07:36:19;;;;;;;3.37;1.37;;;19.00;99.90;;;;;;5007829;28;20444;-74
2022/09/15 07:38:48;;;;;;;5.07;1.47;;;19.00;99.90;;;;;;5015338;28;20453;-73
2022/09/15 07:41:18;;;;;;;8.90;1.87;;;19.00;99.90;;;;;;5017313;28;20475;-71
2022/09/15 07:43:46;;;;;;;4.00;1.20;;;19.20;99.90;;;;;;5017907;28;20480;-73
2022/09/15 07:46:13;;;;;;;3.60;1.30;;;19.60;99.90;;;;;;5018371;28;20552;-75
2022/09/15 07:48:40;;;;;;;7.30;1.70;;;20.40;99.90;;;;;;5008344;28;20484;-73
2022/09/15 07:51:07;;;;;;;6.23;3.70;;;21.50;99.90;;;;;;5012949;28;20443;-75
2022/09/15 07:53:34;;;;;;;6.77;1.87;;;23.00;96.90;;;;;;5022397;28;20444;-71
2022/09/15 07:56:01;;;;;;;4.70;1.73;;;24.50;93.50;;;;;;5010467;28;20444;-74
2022/09/15 07:58:29;;;;;;;4.70;1.97;;;26.00;90.50;;;;;;5019270;28;20472;-71
2022/09/15 08:01:01;;;;;;;5.47;2.90;;;26.70;86.40;;;;;;5013045;28;20942;-72
2022/09/15 08:03:29;;;;;;;3.30;1.30;;;27.10;83.90;;;;;;5014352;28;21111;-71
2022/09/15 08:05:58;;;;;;;4.50;1.60;;;27.50;82.00;;;;;;5013789;28;20736;-76
2022/09/15 08:08:25;;;;;;;4.37;1.37;;;28.20;79.70;;;;;;5021159;28;20469;-73
2022/09/15 08:10:52;;;;;;;3.20;1.03;;;29.00;76.60;;;;;;5013162;28;20454;-73
2022/09/15 08:13:21;;;;;;;2.07;1.00;;;29.70;73.80;;;;;;5019720;28;20447;-73
2022/09/15 08:15:49;;;;;;;7.93;2.27;;;29.80;71.70;;;;;;5014441;28;20805;-70
2022/09/15 08:18:17;;;;;;;4.17;1.20;;;29.70;71.30;;;;;;5012372;28;20496;-74
2022/09/15 08:20:44;;;;;;;5.40;1.40;;;29.40;69.80;;;;;;5018424;28;20507;-71
2022/09/15 08:23:11;;;;;;;8.63;1.20;;;28.60;70.60;;;;;;5007569;28;20555;-71
2022/09/15 08:25:39;;;;;;;4.93;1.10;;;27.90;70.80;;;;;;5017809;28;20440;-75
2022/09/15 08:28:06;;;;;;;2.13;1.03;;;27.00;72.50;;;;;;5002546;28;20563;-73
2022/09/15 08:30:34;;;;;;;2.83;1.20;;;26.60;73.10;;;;;;5008378;28;20486;-70
2022/09/15 08:33:02;;;;;;;14.23;1.90;;;26.90;73.90;;;;;;5004127;28;20865;-70
2022/09/15 08:35:31;;;;;;;22.50;2.67;;;26.90;73.10;;;;;;5008289;28;20448;-72
2022/09/15 08:37:58;;;;;;;3.43;1.67;;;26.50;74.20;;;;;;5009559;28;20466;-71
2022/09/15 08:40:28;;;;;;;6.97;2.27;;;26.00;75.20;;;;;;5020668;28;20439;-72
2022/09/15 08:43:00;;;;;;;3.77;1.47;;;25.30;77.00;;;;;;5019913;28;21036;-73
2022/09/15 08:45:32;;;;;;;5.67;2.13;;;24.80;79.10;;;;;;5010345;28;20455;-70
2022/09/15 08:48:03;;;;;;;4.40;1.13;;;24.10;80.30;;;;;;5002773;28;20552;-73
2022/09/15 08:50:34;;;;;;;4.70;1.77;;;24.00;81.60;;;;;;5011652;28;20466;-69
2022/09/15 08:53:08;;;;;;;8.40;3.27;;;24.00;82.30;;;;;;5007155;28;20919;-71
2022/09/15 08:55:41;;;;;;;4.37;1.00;;;24.20;82.10;;;;;;5013679;28;21025;-70
2022/09/15 08:58:14;;;;;;;5.80;2.00;;;23.90;82.60;;;;;;5019144;28;20463;-72
2022/09/15 09:00:43;;;;;;;5.10;1.17;;;23.10;84.10;;;;;;5022220;28;20447;-68
2022/09/15 09:03:41;;;;;;;3.63;1.30;;;22.50;86.50;;;;;;5021154;28;21055;-69
2022/09/15 09:06:18;;;;;;;8.97;1.40;;;21.70;93.40;;;;;;5014517;28;20470;-71
2022/09/15 09:09:08;;;;;;;3.70;1.30;;;20.80;98.50;;;;;;4994804;28;20479;-71
2022/09/15 09:11:50;;;;;;;2.90;1.20;;;20.00;99.90;;;;;;5018082;28;20460;-68
2022/09/15 09:14:28;;;;;;;3.00;1.50;;;19.30;99.90;;;;;;5013809;28;20456;-71
2022/09/15 09:17:07;;;;;;;6.50;1.60;;;18.70;99.90;;;;;;5002860;28;20506;-70
2022/09/15 09:19:57;;;;;;;4.13;2.40;;;18.20;99.90;;;;;;4986959;28;20440;-71
2022/09/15 09:22:27;;;;;;;7.40;1.70;;;17.90;99.90;;;;;;5010421;28;20505;-73
2022/09/15 09:25:00;;;;;;;6.70;1.40;;;17.80;99.90;;;;;;5008284;28;20583;-75
2022/09/15 09:27:32;;;;;;;2.93;1.20;;;17.70;99.90;;;;;;5004878;28;20469;-71
2022/09/15 09:30:03;;;;;;;4.97;1.70;;;17.70;99.90;;;;;;5008822;28;20459;-74
2022/09/15 09:32:39;;;;;;;7.13;1.87;;;17.70;99.90;;;;;;5007984;28;20811;-73
2022/09/15 09:35:15;;;;;;;3.97;1.37;;;17.80;99.90;;;;;;4993761;28;20590;-70
2022/09/15 09:37:42;;;;;;;2.10;1.27;;;18.00;99.90;;;;;;5008209;28;20979;-70
2022/09/15 09:40:14;;;;;;;4.87;1.50;;;18.00;99.90;;;;;;5020707;28;20538;-71
2022/09/15 09:42:43;;;;;;;5.90;1.80;;;18.20;99.90;;;;;;5015620;28;20502;-71
2022/09/15 09:45:14;;;;;;;9.20;2.37;;;18.30;99.90;;;;;;5011701;28;20455;-70
2022/09/15 09:47:42;;;;;;;4.97;2.83;;;18.40;99.90;;;;;;5015591;28;20463;-69
2022/09/15 09:50:33;;;;;;;5.17;1.40;;;18.70;99.90;;;;;;5010887;28;20466;-75
2022/09/15 09:53:00;;;;;;;3.80;1.67;;;19.10;99.90;;;;;;5010040;28;20958;-73
2022/09/15 09:55:28;;;;;;;4.10;1.70;;;19.60;99.90;;;;;;5014141;28;20526;-73
2022/09/15 09:58:13;;;;;;;8.20;1.30;;;20.00;99.90;;;;;;5010182;28;20973;-69
2022/09/15 10:00:41;;;;;;;4.87;1.20;;;21.00;99.90;;;;;;5003570;28;20455;-74
2022/09/15 10:03:14;;;;;;;2.03;1.10;;;22.20;99.90;;;;;;5012462;28;20468;-72
2022/09/15 10:05:43;;;;;;;5.30;1.47;;;23.30;96.80;;;;;;5007793;28;20550;-73
2022/09/15 10:08:20;;;;;;;4.33;1.40;;;23.70;95.30;;;;;;5006729;28;20506;-73
2022/09/15 10:10:52;;;;;;;4.50;1.50;;;24.00;94.80;;;;;;5008385;28;20439;-76
2022/09/15 10:13:20;;;;;;;5.30;1.70;;;23.90;93.80;;;;;;5009413;28;20451;-77
2022/09/15 10:15:54;;;;;;;1.63;1.10;;;23.30;93.60;;;;;;5015985;28;20471;-75
2022/09/15 10:18:37;;;;;;;5.37;2.47;;;22.90;94.90;;;;;;4983385;28;20484;-76
2022/09/15 10:21:16;;;;;;;7.43;1.20;;;22.80;94.50;;;;;;5012073;28;20467;-73
2022/09/15 10:23:43;;;;;;;5.97;2.00;;;22.60;95.40;;;;;;5002771;28;20563;-75
2022/09/15 10:26:30;;;;;;;4.93;1.30;;;22.40;95.90;;;;;;5005470;28;20450;-76
2022/09/15 10:29:12;;;;;;;2.80;1.37;;;22.00;95.50;;;;;;5009465;28;21012;-77
2022/09/15 10:31:39;;;;;;;4.07;1.50;;;21.60;96.20;;;;;;5009080;28;20474;-74
2022/09/15 10:34:25;;;;;;;5.90;2.50;;;21.40;96.80;;;;;;5009948;28;20534;-75
2022/09/15 10:36:58;;;;;;;4.13;1.23;;;21.20;97.70;;;;;;5004261;28;20533;-73
2022/09/15 10:39:32;;;;;;;4.17;2.13;;;21.00;97.70;;;;;;5010622;28;20450;-78
2022/09/15 10:42:11;;;;;;;4.30;2.13;;;20.70;98.30;;;;;;5001365;28;20502;-78
2022/09/15 10:44:46;;;;;;;7.30;1.20;;;20.70;97.70;;;;;;4993173;28;20839;-80
2022/09/15 10:47:25;;;;;;;7.60;1.40;;;20.90;97.20;;;;;;5013797;28;20471;-78
2022/09/15 10:50:06;;;;;;;7.40;1.60;;;20.90;96.00;;;;;;4982739;28;20455;-80
2022/09/15 10:52:45;;;;;;;4.00;1.33;;;21.20;96.20;;;;;;4998062;28;20820;-78
2022/09/15 10:55:32;;;;;;;5.97;1.40;;;21.50;95.40;;;;;;4999662;28;20474;-81
2022/09/15 10:58:13;;;;;;;2.77;0.90;;;22.10;94.30;;;;;;5005292;28;20970;-79
2022/09/15 11:00:46;;;;;;;4.77;1.60;;;22.40;93.90;;;;;;4991167;28;20465;-81
2022/09/15 11:03:52;;;;;;;3.43;1.43;;;22.50;93.70;;;;;;5001044;28;20530;-80
2022/09/15 11:06:36;;;;;;;4.37;1.23;;;22.40;93.10;;;;;;5001013;28;20967;-79
2022/09/15 11:09:18;;;;;;;3.90;1.30;;;22.30;93.30;;;;;;5017030;28;20453;-77
2022/09/15 11:12:00;;;;;;;4.47;1.10;;;21.90;93.20;;;;;;5011140;28;20857;-76
2022/09/15 11:14:40;;;;;;;4.33;1.60;;;22.30;92.90;;;;;;4985891;28;20516;-74
2022/09/15 11:17:34;;;;;;;3.80;1.10;;;22.30;92.10;;;;;;4990814;28;20494;-74
2022/09/15 11:20:32;;;;;;;10.10;2.30;;;22.00;91.70;;;;;;5009165;28;20453;-75
2022/09/15 11:23:05;;;;;;;2.93;1.37;;;21.20;94.90;;;;;;5001153;28;20453;-72
2022/09/15 11:25:38;;;;;;;8.50;1.93;;;20.40;97.90;;;;;;5008897;28;20866;-73
2022/09/15 11:28:13;;;;;;;3.37;1.60;;;19.80;99.90;;;;;;4997693;28;20480;-75
2022/09/15 11:30:46;;;;;;;3.63;1.30;;;19.40;99.90;;;;;;5005292;28;20443;-72
2022/09/15 11:33:18;;;;;;;11.10;2.00;;;19.10;99.90;;;;;;5007334;28;20469;-72
2022/09/15 11:35:50;;;;;;;1.67;1.03;;;18.80;99.90;;;;;;5005878;28;20452;-73
2022/09/15 11:38:28;;;;;;;2.87;1.00;;;18.50;99.90;;;;;;5010590;28;20474;-73
2022/09/15 11:41:07;;;;;;;1.70;1.20;;;18.40;99.90;;;;;;5011615;28;20469;-75
2022/09/15 11:43:39;;;;;;;2.20;1.20;;;18.10;99.90;;;;;;5012555;28;20483;-73
2022/09/15 11:46:13;;;;;;;5.47;1.20;;;18.10;99.90;;;;;;5014636;28;20466;-73
2022/09/15 11:48:45;;;;;;;4.30;1.37;;;18.10;99.90;;;;;;5016904;28;20849;-73
2022/09/15 11:51:16;;;;;;;3.07;1.47;;;18.20;99.90;;;;;;5013655;28;20466;-76
2022/09/15 11:53:50;;;;;;;2.60;1.50;;;18.30;99.90;;;;;;5000488;28;20439;-76
2022/09/15 11:56:25;;;;;;;5.33;1.60;;;18.40;99.90;;;;;;4995076;28;20778;-75
2022/09/15 11:59:05;;;;;;;3.43;1.50;;;18.40;99.90;;;;;;4986644;28;20542;-77
2022/09/15 12:01:39;;;;;;;2.27;1.30;;;18.70;99.90;;;;;;5014133;28;20437;-73
2022/09/15 12:04:13;;;;;;;3.70;1.50;;;18.90;99.90;;;;;;5013148;28;20557;-74
2022/09/15 12:06:46;;;;;;;2.80;1.50;;;19.00;99.90;;;;;;4990679;28;20962;-75
2022/09/15 12:09:16;;;;;;;4.17;1.23;;;19.10;99.90;;;;;;5014362;28;20454;-72
2022/09/15 12:11:46;;;;;;;2.60;1.30;;;19.30;99.90;;;;;;5017474;28;20507;-73
2022/09/15 12:14:16;;;;;;;6.60;2.17;;;19.50;99.90;;;;;;5019023;28;20475;-73
2022/09/15 12:16:44;;;;;;;4.20;1.60;;;19.70;99.90;;;;;;5010693;28;20531;-70
2022/09/15 12:19:18;;;;;;;6.03;1.70;;;19.80;99.90;;;;;;5018617;28;20466;-71
2022/09/15 12:21:51;;;;;;;5.20;1.23;;;19.90;99.90;;;;;;5013043;28;20537;-71
2022/09/15 12:24:23;;;;;;;4.67;1.43;;;20.10;99.90;;;;;;5006721;28;20469;-75
2022/09/15 12:26:52;;;;;;;2.00;1.10;;;20.40;99.90;;;;;;5005464;28;20534;-74
2022/09/15 12:29:39;;;;;;;2.93;1.60;;;20.80;99.90;;;;;;5014467;28;20537;-72
2022/09/15 12:32:23;;;;;;;3.40;1.07;;;21.00;99.90;;;;;;5018092;28;20448;-73
2022/09/15 12:35:25;;;;;;;4.10;1.30;;;20.90;99.90;;;;;;4998890;28;20507;-74
2022/09/15 12:37:56;;;;;;;3.17;1.10;;;20.80;99.90;;;;;;5004698;28;20562;-72
2022/09/15 12:40:33;;;;;;;3.17;1.27;;;20.40;99.50;;;;;;5014305;28;20853;-75
2022/09/15 12:43:01;;;;;;;3.00;1.07;;;20.20;99.90;;;;;;4996935;28;20471;-75
2022/09/15 12:45:31;;;;;;;3.47;0.97;;;20.10;99.90;;;;;;5001389;28;20547;-74
2022/09/15 12:48:04;;;;;;;6.50;2.43;;;20.00;97.90;;;;;;5003504;28;20555;-76
2022/09/15 12:50:33;;;;;;;2.87;1.00;;;19.80;98.40;;;;;;5004427;28;20468;-74
2022/09/15 12:53:11;;;;;;;1.70;1.10;;;19.70;99.20;;;;;;5009340;28;20448;-74
2022/09/15 12:55:49;;;;;;;3.70;1.47;;;19.50;97.30;;;;;;4995192;28;20440;-74
2022/09/15 12:58:20;;;;;;;5.00;1.33;;;19.30;97.30;;;;;;5002099;28;20468;-74
2022/09/15 13:00:48;;;;;;;1.50;0.87;;;19.00;97.40;;;;;;5017056;28;20485;-74
2022/09/15 13:03:28;;;;;;;1.77;0.80;;;18.90;98.10;;;;;;5020071;28;20436;-72
2022/09/15 13:06:18;;;;;;;4.00;1.67;;;19.10;97.10;;;;;;5000538;28;20906;-73
2022/09/15 13:08:55;;;;;;;2.47;1.13;;;19.10;97.60;;;;;;5025192;28;20481;-75
2022/09/15 13:11:36;;;;;;;2.20;1.10;;;19.20;98.10;;;;;;5023793;28;20542;-74
2022/09/15 13:14:22;;;;;;;5.30;1.40;;;19.10;99.70;;;;;;5023743;28;20436;-73
2022/09/15 13:16:55;;;;;;;1.97;1.20;;;18.80;99.90;;;;;;5004565;28;20467;-74
2022/09/15 13:19:25;;;;;;;3.63;1.27;;;18.70;99.90;;;;;;5021362;28;20450;-76